sensor_id;sensor_type;location;lat;lon;timestamp;P1;durP1;ratioP1;P2;durP2;ratioP2
30818;SDS011;17546;42.674;23.284;2022-09-09T00:04:12;18.98;;;8.00;;
30818;SDS011;17546;42.674;23.284;2022-09-09T00:06:43;14.05;;;8.43;;
30818;SDS011;17546;42.674;23.284;2022-09-09T00:09:18;10.85;;;8.00;;
30818;SDS011;17546;42.674;23.284;2022-09-09T00:11:47;15.00;;;7.82;;
30818;SDS011;17546;42.674;23.284;2022-09-09T00:16:51;12.55;;;8.50;;
30818;SDS011;17546;42.674;23.284;2022-09-09T00:19:28;12.32;;;8.30;;
30818;SDS011;17546;42.674;23.284;2022-09-09T00:24:45;10.65;;;7.95;;
30818;SDS011;17546;42.674;23.284;2022-09-09T00:27:22;14.65;;;8.65;;
30818;SDS011;17546;42.674;23.284;2022-09-09T00:32:39;12.18;;;8.55;;
30818;SDS011;17546;42.674;23.284;2022-09-09T00:35:18;11.05;;;8.57;;
30818;SDS011;17546;42.674;23.284;2022-09-09T00:37:50;13.20;;;8.27;;
30818;SDS011;17546;42.674;23.284;2022-09-09T00:40:32;14.93;;;8.18;;
30818;SDS011;17546;42.674;23.284;2022-09-09T00:45:58;18.40;;;8.93;;
30818;SDS011;17546;42.674;23.284;2022-09-09T00:48:27;18.05;;;8.80;;
30818;SDS011;17546;42.674;23.284;2022-09-09T00:56:37;14.45;;;9.23;;
30818;SDS011;17546;42.674;23.284;2022-09-09T01:01:51;16.77;;;9.02;;
30818;SDS011;17546;42.674;23.284;2022-09-09T01:04:21;15.23;;;9.00;;
30818;SDS011;17546;42.674;23.284;2022-09-09T01:07:12;19.02;;;9.05;;
30818;SDS011;17546;42.674;23.284;2022-09-09T01:09:50;15.23;;;8.38;;
30818;SDS011;17546;42.674;23.284;2022-09-09T01:12:35;15.32;;;8.73;;
30818;SDS011;17546;42.674;23.284;2022-09-09T01:15:10;16.55;;;8.77;;
30818;SDS011;17546;42.674;23.284;2022-09-09T01:23:04;12.32;;;8.25;;
30818;SDS011;17546;42.674;23.284;2022-09-09T01:28:09;13.38;;;8.38;;
30818;SDS011;17546;42.674;23.284;2022-09-09T01:30:40;18.13;;;8.65;;
30818;SDS011;17546;42.674;23.284;2022-09-09T01:33:10;15.52;;;8.98;;
30818;SDS011;17546;42.674;23.284;2022-09-09T01:35:45;13.48;;;8.93;;
30818;SDS011;17546;42.674;23.284;2022-09-09T01:38:19;17.95;;;8.50;;
30818;SDS011;17546;42.674;23.284;2022-09-09T01:40:45;17.02;;;9.07;;
30818;SDS011;17546;42.674;23.284;2022-09-09T01:43:11;12.52;;;7.75;;
30818;SDS011;17546;42.674;23.284;2022-09-09T01:45:37;16.25;;;8.35;;
30818;SDS011;17546;42.674;23.284;2022-09-09T01:48:04;16.58;;;8.35;;
30818;SDS011;17546;42.674;23.284;2022-09-09T01:50:29;14.48;;;7.40;;
30818;SDS011;17546;42.674;23.284;2022-09-09T01:52:56;13.73;;;8.52;;
30818;SDS011;17546;42.674;23.284;2022-09-09T01:55:28;12.07;;;7.95;;
30818;SDS011;17546;42.674;23.284;2022-09-09T01:58:00;20.52;;;8.23;;
30818;SDS011;17546;42.674;23.284;2022-09-09T02:00:27;12.23;;;7.97;;
30818;SDS011;17546;42.674;23.284;2022-09-09T02:03:08;11.82;;;7.88;;
30818;SDS011;17546;42.674;23.284;2022-09-09T02:06:14;15.85;;;9.07;;
30818;SDS011;17546;42.674;23.284;2022-09-09T02:08:49;14.13;;;8.02;;
30818;SDS011;17546;42.674;23.284;2022-09-09T02:11:18;13.37;;;8.87;;
30818;SDS011;17546;42.674;23.284;2022-09-09T02:13:47;14.00;;;8.90;;
30818;SDS011;17546;42.674;23.284;2022-09-09T02:16:23;14.23;;;8.98;;
30818;SDS011;17546;42.674;23.284;2022-09-09T02:21:21;14.70;;;8.93;;
30818;SDS011;17546;42.674;23.284;2022-09-09T02:23:53;13.85;;;8.60;;
30818;SDS011;17546;42.674;23.284;2022-09-09T02:26:21;13.57;;;8.68;;
30818;SDS011;17546;42.674;23.284;2022-09-09T02:28:48;17.77;;;8.43;;
30818;SDS011;17546;42.674;23.284;2022-09-09T02:31:16;22.80;;;8.48;;
30818;SDS011;17546;42.674;23.284;2022-09-09T02:33:45;20.08;;;9.50;;
30818;SDS011;17546;42.674;23.284;2022-09-09T02:36:19;15.40;;;8.93;;
30818;SDS011;17546;42.674;23.284;2022-09-09T02:38:48;15.90;;;8.90;;
30818;SDS011;17546;42.674;23.284;2022-09-09T02:41:19;17.67;;;9.20;;
30818;SDS011;17546;42.674;23.284;2022-09-09T02:43:48;20.42;;;9.05;;
30818;SDS011;17546;42.674;23.284;2022-09-09T02:48:53;13.63;;;8.68;;
30818;SDS011;17546;42.674;23.284;2022-09-09T02:56:39;14.45;;;8.93;;
30818;SDS011;17546;42.674;23.284;2022-09-09T02:59:10;19.35;;;8.52;;
30818;SDS011;17546;42.674;23.284;2022-09-09T03:01:36;17.42;;;8.73;;
30818;SDS011;17546;42.674;23.284;2022-09-09T03:04:02;13.85;;;8.95;;
30818;SDS011;17546;42.674;23.284;2022-09-09T03:06:30;16.17;;;9.18;;
30818;SDS011;17546;42.674;23.284;2022-09-09T03:08:55;19.73;;;8.63;;
30818;SDS011;17546;42.674;23.284;2022-09-09T03:11:22;13.18;;;8.98;;
30818;SDS011;17546;42.674;23.284;2022-09-09T03:13:47;18.95;;;9.38;;
30818;SDS011;17546;42.674;23.284;2022-09-09T03:16:13;15.60;;;8.45;;
30818;SDS011;17546;42.674;23.284;2022-09-09T03:18:40;18.67;;;9.18;;
30818;SDS011;17546;42.674;23.284;2022-09-09T03:21:05;21.35;;;9.38;;
30818;SDS011;17546;42.674;23.284;2022-09-09T03:23:31;14.60;;;9.02;;
30818;SDS011;17546;42.674;23.284;2022-09-09T03:25:57;13.07;;;8.50;;
30818;SDS011;17546;42.674;23.284;2022-09-09T03:28:23;16.48;;;9.05;;
30818;SDS011;17546;42.674;23.284;2022-09-09T03:30:57;16.85;;;9.77;;
30818;SDS011;17546;42.674;23.284;2022-09-09T03:33:24;13.73;;;8.57;;
30818;SDS011;17546;42.674;23.284;2022-09-09T03:35:49;21.63;;;9.52;;
30818;SDS011;17546;42.674;23.284;2022-09-09T03:38:15;14.48;;;9.38;;
30818;SDS011;17546;42.674;23.284;2022-09-09T03:40:48;14.68;;;9.13;;
30818;SDS011;17546;42.674;23.284;2022-09-09T03:43:14;15.00;;;9.68;;
30818;SDS011;17546;42.674;23.284;2022-09-09T03:45:44;15.73;;;9.35;;
30818;SDS011;17546;42.674;23.284;2022-09-09T03:48:12;23.52;;;8.93;;
30818;SDS011;17546;42.674;23.284;2022-09-09T03:50:38;16.50;;;10.32;;
30818;SDS011;17546;42.674;23.284;2022-09-09T03:53:03;18.75;;;9.73;;
30818;SDS011;17546;42.674;23.284;2022-09-09T03:55:31;16.45;;;9.73;;
30818;SDS011;17546;42.674;23.284;2022-09-09T03:57:57;13.05;;;9.50;;
30818;SDS011;17546;42.674;23.284;2022-09-09T04:00:22;21.50;;;10.48;;
30818;SDS011;17546;42.674;23.284;2022-09-09T04:02:48;17.75;;;10.63;;
30818;SDS011;17546;42.674;23.284;2022-09-09T04:05:14;31.13;;;13.60;;
30818;SDS011;17546;42.674;23.284;2022-09-09T04:07:40;20.40;;;10.43;;
30818;SDS011;17546;42.674;23.284;2022-09-09T04:10:06;18.42;;;10.18;;
30818;SDS011;17546;42.674;23.284;2022-09-09T04:12:33;26.13;;;9.73;;
30818;SDS011;17546;42.674;23.284;2022-09-09T04:14:59;22.08;;;10.45;;
30818;SDS011;17546;42.674;23.284;2022-09-09T04:17:27;14.55;;;9.77;;
30818;SDS011;17546;42.674;23.284;2022-09-09T04:19:52;22.75;;;10.98;;
30818;SDS011;17546;42.674;23.284;2022-09-09T04:22:18;18.83;;;10.32;;
30818;SDS011;17546;42.674;23.284;2022-09-09T04:24:43;19.73;;;10.45;;
30818;SDS011;17546;42.674;23.284;2022-09-09T04:27:09;22.23;;;10.05;;
30818;SDS011;17546;42.674;23.284;2022-09-09T04:29:34;14.77;;;9.95;;
30818;SDS011;17546;42.674;23.284;2022-09-09T04:32:00;21.63;;;9.95;;
30818;SDS011;17546;42.674;23.284;2022-09-09T04:34:25;22.98;;;10.52;;
30818;SDS011;17546;42.674;23.284;2022-09-09T04:36:51;15.77;;;10.55;;
30818;SDS011;17546;42.674;23.284;2022-09-09T04:39:19;20.73;;;10.65;;
30818;SDS011;17546;42.674;23.284;2022-09-09T04:41:45;24.13;;;10.73;;
30818;SDS011;17546;42.674;23.284;2022-09-09T04:44:10;23.98;;;10.93;;
30818;SDS011;17546;42.674;23.284;2022-09-09T04:46:36;19.50;;;11.07;;
30818;SDS011;17546;42.674;23.284;2022-09-09T04:49:01;19.50;;;10.68;;
30818;SDS011;17546;42.674;23.284;2022-09-09T04:51:27;22.05;;;11.10;;
30818;SDS011;17546;42.674;23.284;2022-09-09T04:53:53;28.50;;;11.07;;
30818;SDS011;17546;42.674;23.284;2022-09-09T04:56:19;19.45;;;11.18;;
30818;SDS011;17546;42.674;23.284;2022-09-09T04:58:44;26.23;;;11.15;;
30818;SDS011;17546;42.674;23.284;2022-09-09T05:01:17;17.30;;;11.30;;
30818;SDS011;17546;42.674;23.284;2022-09-09T05:03:45;27.10;;;12.57;;
30818;SDS011;17546;42.674;23.284;2022-09-09T05:06:12;21.13;;;11.88;;
30818;SDS011;17546;42.674;23.284;2022-09-09T05:08:39;22.70;;;11.68;;
30818;SDS011;17546;42.674;23.284;2022-09-09T05:11:22;20.23;;;11.95;;
30818;SDS011;17546;42.674;23.284;2022-09-09T05:13:49;26.35;;;11.02;;
30818;SDS011;17546;42.674;23.284;2022-09-09T05:16:16;24.42;;;10.65;;
30818;SDS011;17546;42.674;23.284;2022-09-09T05:18:42;23.23;;;10.18;;
30818;SDS011;17546;42.674;23.284;2022-09-09T05:21:09;21.55;;;11.10;;
30818;SDS011;17546;42.674;23.284;2022-09-09T05:23:35;26.40;;;11.63;;
30818;SDS011;17546;42.674;23.284;2022-09-09T05:26:02;24.08;;;11.32;;
30818;SDS011;17546;42.674;23.284;2022-09-09T05:28:28;22.27;;;11.88;;
30818;SDS011;17546;42.674;23.284;2022-09-09T05:30:57;18.85;;;11.25;;
30818;SDS011;17546;42.674;23.284;2022-09-09T05:33:23;20.08;;;12.20;;
30818;SDS011;17546;42.674;23.284;2022-09-09T05:36:23;19.73;;;12.23;;
30818;SDS011;17546;42.674;23.284;2022-09-09T05:38:43;20.45;;;11.85;;
30818;SDS011;17546;42.674;23.284;2022-09-09T05:41:09;25.65;;;12.02;;
30818;SDS011;17546;42.674;23.284;2022-09-09T05:43:36;23.50;;;12.10;;
30818;SDS011;17546;42.674;23.284;2022-09-09T05:46:04;24.70;;;12.30;;
30818;SDS011;17546;42.674;23.284;2022-09-09T05:48:37;25.85;;;13.10;;
30818;SDS011;17546;42.674;23.284;2022-09-09T05:51:05;22.88;;;12.02;;
30818;SDS011;17546;42.674;23.284;2022-09-09T05:53:32;33.97;;;12.35;;
30818;SDS011;17546;42.674;23.284;2022-09-09T05:55:59;22.17;;;11.90;;
30818;SDS011;17546;42.674;23.284;2022-09-09T05:58:32;23.38;;;12.38;;
30818;SDS011;17546;42.674;23.284;2022-09-09T06:01:03;21.05;;;11.90;;
30818;SDS011;17546;42.674;23.284;2022-09-09T06:03:30;32.70;;;12.70;;
30818;SDS011;17546;42.674;23.284;2022-09-09T06:05:59;25.58;;;13.25;;
30818;SDS011;17546;42.674;23.284;2022-09-09T06:08:25;35.90;;;14.70;;
30818;SDS011;17546;42.674;23.284;2022-09-09T06:10:51;29.30;;;13.70;;
30818;SDS011;17546;42.674;23.284;2022-09-09T06:13:17;29.80;;;13.50;;
30818;SDS011;17546;42.674;23.284;2022-09-09T06:15:49;31.23;;;17.58;;
30818;SDS011;17546;42.674;23.284;2022-09-09T06:18:16;24.17;;;14.68;;
30818;SDS011;17546;42.674;23.284;2022-09-09T06:20:52;26.88;;;14.65;;
30818;SDS011;17546;42.674;23.284;2022-09-09T06:26:07;37.67;;;13.60;;
30818;SDS011;17546;42.674;23.284;2022-09-09T06:28:36;30.45;;;14.07;;
30818;SDS011;17546;42.674;23.284;2022-09-09T06:31:03;27.65;;;13.82;;
30818;SDS011;17546;42.674;23.284;2022-09-09T06:33:31;30.90;;;14.27;;
30818;SDS011;17546;42.674;23.284;2022-09-09T06:35:59;30.25;;;14.30;;
30818;SDS011;17546;42.674;23.284;2022-09-09T06:38:25;32.30;;;14.80;;
30818;SDS011;17546;42.674;23.284;2022-09-09T06:40:54;26.30;;;15.15;;
30818;SDS011;17546;42.674;23.284;2022-09-09T06:43:21;29.23;;;14.95;;
30818;SDS011;17546;42.674;23.284;2022-09-09T06:48:23;26.27;;;13.85;;
30818;SDS011;17546;42.674;23.284;2022-09-09T06:50:50;37.10;;;14.50;;
30818;SDS011;17546;42.674;23.284;2022-09-09T06:53:25;41.17;;;13.35;;
30818;SDS011;17546;42.674;23.284;2022-09-09T06:55:51;24.88;;;13.07;;
30818;SDS011;17546;42.674;23.284;2022-09-09T06:58:17;26.38;;;13.05;;
30818;SDS011;17546;42.674;23.284;2022-09-09T07:00:47;29.80;;;13.38;;
30818;SDS011;17546;42.674;23.284;2022-09-09T07:03:13;24.17;;;12.75;;
30818;SDS011;17546;42.674;23.284;2022-09-09T07:05:38;21.75;;;13.60;;
30818;SDS011;17546;42.674;23.284;2022-09-09T07:08:04;25.90;;;13.10;;
30818;SDS011;17546;42.674;23.284;2022-09-09T07:10:29;29.77;;;14.57;;
30818;SDS011;17546;42.674;23.284;2022-09-09T07:12:54;31.92;;;18.23;;
30818;SDS011;17546;42.674;23.284;2022-09-09T07:15:20;30.60;;;14.45;;
30818;SDS011;17546;42.674;23.284;2022-09-09T07:17:47;30.88;;;14.45;;
30818;SDS011;17546;42.674;23.284;2022-09-09T07:20:13;27.15;;;12.68;;
30818;SDS011;17546;42.674;23.284;2022-09-09T07:22:39;29.10;;;13.02;;
30818;SDS011;17546;42.674;23.284;2022-09-09T07:25:05;29.25;;;12.75;;
30818;SDS011;17546;42.674;23.284;2022-09-09T07:27:31;27.70;;;13.57;;
30818;SDS011;17546;42.674;23.284;2022-09-09T07:29:57;22.38;;;12.95;;
30818;SDS011;17546;42.674;23.284;2022-09-09T07:32:23;25.85;;;12.05;;
30818;SDS011;17546;42.674;23.284;2022-09-09T07:34:48;32.40;;;11.52;;
30818;SDS011;17546;42.674;23.284;2022-09-09T07:37:15;25.10;;;11.35;;
30818;SDS011;17546;42.674;23.284;2022-09-09T07:39:41;27.25;;;12.63;;
30818;SDS011;17546;42.674;23.284;2022-09-09T07:42:07;22.80;;;11.48;;
30818;SDS011;17546;42.674;23.284;2022-09-09T07:44:34;18.65;;;11.38;;
30818;SDS011;17546;42.674;23.284;2022-09-09T07:47:01;35.83;;;11.35;;
30818;SDS011;17546;42.674;23.284;2022-09-09T07:49:28;23.38;;;11.10;;
30818;SDS011;17546;42.674;23.284;2022-09-09T07:51:53;19.70;;;10.48;;
30818;SDS011;17546;42.674;23.284;2022-09-09T07:54:19;27.55;;;10.70;;
30818;SDS011;17546;42.674;23.284;2022-09-09T07:56:45;23.35;;;10.20;;
30818;SDS011;17546;42.674;23.284;2022-09-09T07:59:12;28.30;;;10.38;;
30818;SDS011;17546;42.674;23.284;2022-09-09T08:01:39;25.30;;;9.98;;
30818;SDS011;17546;42.674;23.284;2022-09-09T08:04:09;20.13;;;10.05;;
30818;SDS011;17546;42.674;23.284;2022-09-09T08:06:41;15.57;;;9.68;;
30818;SDS011;17546;42.674;23.284;2022-09-09T08:09:18;22.38;;;9.27;;
30818;SDS011;17546;42.674;23.284;2022-09-09T08:11:43;21.88;;;8.73;;
30818;SDS011;17546;42.674;23.284;2022-09-09T08:14:10;21.23;;;8.30;;
30818;SDS011;17546;42.674;23.284;2022-09-09T08:16:37;20.58;;;8.93;;
30818;SDS011;17546;42.674;23.284;2022-09-09T08:19:05;15.30;;;8.23;;
30818;SDS011;17546;42.674;23.284;2022-09-09T08:21:32;24.48;;;8.60;;
30818;SDS011;17546;42.674;23.284;2022-09-09T08:24:00;24.85;;;7.88;;
30818;SDS011;17546;42.674;23.284;2022-09-09T08:26:27;25.33;;;8.07;;
30818;SDS011;17546;42.674;23.284;2022-09-09T08:28:55;21.35;;;7.95;;
30818;SDS011;17546;42.674;23.284;2022-09-09T08:31:26;22.65;;;8.57;;
30818;SDS011;17546;42.674;23.284;2022-09-09T08:34:19;22.45;;;7.55;;
30818;SDS011;17546;42.674;23.284;2022-09-09T08:36:46;19.08;;;7.40;;
30818;SDS011;17546;42.674;23.284;2022-09-09T08:39:15;16.17;;;7.30;;
30818;SDS011;17546;42.674;23.284;2022-09-09T08:52:39;14.23;;;7.27;;
30818;SDS011;17546;42.674;23.284;2022-09-09T08:57:55;18.17;;;7.63;;
30818;SDS011;17546;42.674;23.284;2022-09-09T09:00:23;26.70;;;7.68;;
30818;SDS011;17546;42.674;23.284;2022-09-09T09:03:14;21.17;;;7.10;;
30818;SDS011;17546;42.674;23.284;2022-09-09T09:05:50;27.20;;;7.38;;
30818;SDS011;17546;42.674;23.284;2022-09-09T09:10:58;17.80;;;8.40;;
30818;SDS011;17546;42.674;23.284;2022-09-09T09:13:32;18.55;;;6.85;;
30818;SDS011;17546;42.674;23.284;2022-09-09T09:19:00;41.70;;;10.13;;
30818;SDS011;17546;42.674;23.284;2022-09-09T09:27:04;19.30;;;6.15;;
30818;SDS011;17546;42.674;23.284;2022-09-09T09:29:39;15.50;;;6.57;;
30818;SDS011;17546;42.674;23.284;2022-09-09T09:32:07;15.63;;;5.75;;
30818;SDS011;17546;42.674;23.284;2022-09-09T09:34:39;16.52;;;5.88;;
30818;SDS011;17546;42.674;23.284;2022-09-09T09:37:12;17.42;;;5.50;;
30818;SDS011;17546;42.674;23.284;2022-09-09T09:39:44;17.73;;;6.25;;
30818;SDS011;17546;42.674;23.284;2022-09-09T09:42:11;20.58;;;6.30;;
30818;SDS011;17546;42.674;23.284;2022-09-09T09:44:41;14.98;;;6.38;;
30818;SDS011;17546;42.674;23.284;2022-09-09T09:49:39;15.35;;;6.75;;
30818;SDS011;17546;42.674;23.284;2022-09-09T09:52:17;26.90;;;7.07;;
30818;SDS011;17546;42.674;23.284;2022-09-09T09:54:49;14.90;;;7.78;;
30818;SDS011;17546;42.674;23.284;2022-09-09T09:57:16;16.58;;;6.60;;
30818;SDS011;17546;42.674;23.284;2022-09-09T09:59:43;15.95;;;6.38;;
30818;SDS011;17546;42.674;23.284;2022-09-09T10:02:22;30.48;;;7.93;;
30818;SDS011;17546;42.674;23.284;2022-09-09T10:07:41;17.48;;;5.72;;
30818;SDS011;17546;42.674;23.284;2022-09-09T10:10:15;20.23;;;6.40;;
30818;SDS011;17546;42.674;23.284;2022-09-09T10:29:43;19.58;;;6.88;;
30818;SDS011;17546;42.674;23.284;2022-09-09T10:35:25;18.52;;;6.40;;
30818;SDS011;17546;42.674;23.284;2022-09-09T10:38:12;16.67;;;6.85;;
30818;SDS011;17546;42.674;23.284;2022-09-09T10:57:14;24.83;;;8.50;;
30818;SDS011;17546;42.674;23.284;2022-09-09T10:59:50;24.30;;;8.10;;
30818;SDS011;17546;42.674;23.284;2022-09-09T11:02:24;21.70;;;7.70;;
30818;SDS011;17546;42.674;23.284;2022-09-09T11:04:54;23.63;;;7.65;;
30818;SDS011;17546;42.674;23.284;2022-09-09T11:13:24;24.23;;;7.70;;
30818;SDS011;17546;42.674;23.284;2022-09-09T11:16:04;27.50;;;7.68;;
30818;SDS011;17546;42.674;23.284;2022-09-09T11:18:55;31.08;;;7.85;;
30818;SDS011;17546;42.674;23.284;2022-09-09T11:21:36;23.55;;;7.40;;
30818;SDS011;17546;42.674;23.284;2022-09-09T11:24:13;21.20;;;7.88;;
30818;SDS011;17546;42.674;23.284;2022-09-09T11:27:05;23.75;;;7.43;;
30818;SDS011;17546;42.674;23.284;2022-09-09T11:35:11;28.05;;;7.90;;
30818;SDS011;17546;42.674;23.284;2022-09-09T11:40:26;30.35;;;8.38;;
30818;SDS011;17546;42.674;23.284;2022-09-09T11:43:05;35.42;;;8.02;;
30818;SDS011;17546;42.674;23.284;2022-09-09T11:45:38;27.83;;;7.85;;
30818;SDS011;17546;42.674;23.284;2022-09-09T11:48:05;34.20;;;7.80;;
30818;SDS011;17546;42.674;23.284;2022-09-09T11:50:57;25.58;;;8.40;;
30818;SDS011;17546;42.674;23.284;2022-09-09T11:53:34;20.58;;;8.10;;
30818;SDS011;17546;42.674;23.284;2022-09-09T11:56:12;27.17;;;7.63;;
30818;SDS011;17546;42.674;23.284;2022-09-09T11:58:59;19.35;;;7.88;;
30818;SDS011;17546;42.674;23.284;2022-09-09T12:01:37;26.33;;;8.18;;
30818;SDS011;17546;42.674;23.284;2022-09-09T12:04:17;27.25;;;8.05;;
30818;SDS011;17546;42.674;23.284;2022-09-09T12:09:39;22.58;;;7.72;;
30818;SDS011;17546;42.674;23.284;2022-09-09T12:12:18;19.10;;;7.20;;
30818;SDS011;17546;42.674;23.284;2022-09-09T12:15:29;15.43;;;7.93;;
30818;SDS011;17546;42.674;23.284;2022-09-09T12:17:44;24.08;;;7.90;;
30818;SDS011;17546;42.674;23.284;2022-09-09T12:20:26;18.70;;;8.15;;
30818;SDS011;17546;42.674;23.284;2022-09-09T12:36:51;23.70;;;7.20;;
30818;SDS011;17546;42.674;23.284;2022-09-09T12:39:29;22.67;;;7.72;;
30818;SDS011;17546;42.674;23.284;2022-09-09T12:41:56;19.08;;;5.97;;
30818;SDS011;17546;42.674;23.284;2022-09-09T12:44:22;17.90;;;6.32;;
30818;SDS011;17546;42.674;23.284;2022-09-09T12:46:49;20.20;;;6.55;;
30818;SDS011;17546;42.674;23.284;2022-09-09T12:49:35;15.50;;;5.72;;
30818;SDS011;17546;42.674;23.284;2022-09-09T12:52:23;14.25;;;5.82;;
30818;SDS011;17546;42.674;23.284;2022-09-09T12:54:55;15.30;;;5.78;;
30818;SDS011;17546;42.674;23.284;2022-09-09T12:57:22;18.02;;;5.85;;
30818;SDS011;17546;42.674;23.284;2022-09-09T12:59:50;17.95;;;6.50;;
30818;SDS011;17546;42.674;23.284;2022-09-09T13:02:18;20.15;;;8.15;;
30818;SDS011;17546;42.674;23.284;2022-09-09T13:04:44;21.30;;;5.65;;
30818;SDS011;17546;42.674;23.284;2022-09-09T13:07:12;15.15;;;5.07;;
30818;SDS011;17546;42.674;23.284;2022-09-09T13:09:39;13.38;;;5.53;;
30818;SDS011;17546;42.674;23.284;2022-09-09T13:12:04;18.80;;;5.60;;
30818;SDS011;17546;42.674;23.284;2022-09-09T13:14:38;13.15;;;5.05;;
30818;SDS011;17546;42.674;23.284;2022-09-09T13:17:04;16.92;;;5.90;;
30818;SDS011;17546;42.674;23.284;2022-09-09T13:19:44;12.65;;;6.40;;
30818;SDS011;17546;42.674;23.284;2022-09-09T13:22:14;14.88;;;5.80;;
30818;SDS011;17546;42.674;23.284;2022-09-09T13:25:06;25.30;;;7.13;;
30818;SDS011;17546;42.674;23.284;2022-09-09T13:27:50;33.83;;;7.88;;
30818;SDS011;17546;42.674;23.284;2022-09-09T13:38:35;20.25;;;7.60;;
30818;SDS011;17546;42.674;23.284;2022-09-09T13:41:22;27.92;;;8.18;;
30818;SDS011;17546;42.674;23.284;2022-09-09T13:43:50;27.70;;;7.72;;
30818;SDS011;17546;42.674;23.284;2022-09-09T13:46:33;33.67;;;7.75;;
30818;SDS011;17546;42.674;23.284;2022-09-09T13:51:38;90.50;;;9.65;;
30818;SDS011;17546;42.674;23.284;2022-09-09T13:54:04;32.83;;;7.78;;
30818;SDS011;17546;42.674;23.284;2022-09-09T13:56:32;19.00;;;7.72;;
30818;SDS011;17546;42.674;23.284;2022-09-09T13:59:02;31.73;;;7.95;;
30818;SDS011;17546;42.674;23.284;2022-09-09T14:01:28;31.27;;;8.75;;
30818;SDS011;17546;42.674;23.284;2022-09-09T14:03:54;20.48;;;7.32;;
30818;SDS011;17546;42.674;23.284;2022-09-09T14:06:20;18.52;;;7.85;;
30818;SDS011;17546;42.674;23.284;2022-09-09T14:08:47;29.88;;;7.78;;
30818;SDS011;17546;42.674;23.284;2022-09-09T14:11:13;20.85;;;7.53;;
30818;SDS011;17546;42.674;23.284;2022-09-09T14:13:38;23.10;;;7.10;;
30818;SDS011;17546;42.674;23.284;2022-09-09T14:16:04;22.23;;;7.22;;
30818;SDS011;17546;42.674;23.284;2022-09-09T14:18:29;16.90;;;6.78;;
30818;SDS011;17546;42.674;23.284;2022-09-09T14:20:55;25.10;;;7.43;;
30818;SDS011;17546;42.674;23.284;2022-09-09T14:23:22;20.52;;;7.60;;
30818;SDS011;17546;42.674;23.284;2022-09-09T14:25:49;21.15;;;7.05;;
30818;SDS011;17546;42.674;23.284;2022-09-09T14:28:15;24.95;;;7.28;;
30818;SDS011;17546;42.674;23.284;2022-09-09T14:30:41;37.95;;;8.10;;
30818;SDS011;17546;42.674;23.284;2022-09-09T14:33:09;23.83;;;7.72;;
30818;SDS011;17546;42.674;23.284;2022-09-09T14:35:39;26.48;;;7.43;;
30818;SDS011;17546;42.674;23.284;2022-09-09T14:38:06;19.88;;;7.70;;
30818;SDS011;17546;42.674;23.284;2022-09-09T14:40:36;23.63;;;7.63;;
30818;SDS011;17546;42.674;23.284;2022-09-09T14:43:06;18.20;;;7.70;;
30818;SDS011;17546;42.674;23.284;2022-09-09T14:45:35;17.40;;;7.22;;
30818;SDS011;17546;42.674;23.284;2022-09-09T14:48:04;23.20;;;8.32;;
30818;SDS011;17546;42.674;23.284;2022-09-09T14:50:30;36.45;;;8.30;;
30818;SDS011;17546;42.674;23.284;2022-09-09T14:52:55;26.48;;;8.13;;
30818;SDS011;17546;42.674;23.284;2022-09-09T14:55:21;24.85;;;7.93;;
30818;SDS011;17546;42.674;23.284;2022-09-09T14:57:46;28.30;;;7.97;;
30818;SDS011;17546;42.674;23.284;2022-09-09T15:00:12;24.30;;;8.25;;
30818;SDS011;17546;42.674;23.284;2022-09-09T15:02:38;18.73;;;7.60;;
30818;SDS011;17546;42.674;23.284;2022-09-09T15:05:04;28.38;;;8.00;;
30818;SDS011;17546;42.674;23.284;2022-09-09T15:07:30;21.63;;;7.40;;
30818;SDS011;17546;42.674;23.284;2022-09-09T15:09:56;18.70;;;7.63;;
30818;SDS011;17546;42.674;23.284;2022-09-09T15:12:22;27.75;;;7.75;;
30818;SDS011;17546;42.674;23.284;2022-09-09T15:14:49;20.20;;;8.20;;
30818;SDS011;17546;42.674;23.284;2022-09-09T15:17:15;24.23;;;7.93;;
30818;SDS011;17546;42.674;23.284;2022-09-09T15:19:41;28.85;;;8.00;;
30818;SDS011;17546;42.674;23.284;2022-09-09T15:22:07;19.30;;;7.72;;
30818;SDS011;17546;42.674;23.284;2022-09-09T15:24:33;21.83;;;9.38;;
30818;SDS011;17546;42.674;23.284;2022-09-09T15:26:59;25.73;;;10.80;;
30818;SDS011;17546;42.674;23.284;2022-09-09T15:29:29;26.50;;;9.57;;
30818;SDS011;17546;42.674;23.284;2022-09-09T15:31:57;26.17;;;8.32;;
30818;SDS011;17546;42.674;23.284;2022-09-09T15:34:23;24.88;;;7.95;;
30818;SDS011;17546;42.674;23.284;2022-09-09T15:36:48;21.60;;;8.23;;
30818;SDS011;17546;42.674;23.284;2022-09-09T15:39:24;18.92;;;7.13;;
30818;SDS011;17546;42.674;23.284;2022-09-09T15:41:50;31.65;;;10.70;;
30818;SDS011;17546;42.674;23.284;2022-09-09T15:44:23;33.53;;;9.00;;
30818;SDS011;17546;42.674;23.284;2022-09-09T15:46:51;18.95;;;7.97;;
30818;SDS011;17546;42.674;23.284;2022-09-09T15:49:22;36.85;;;8.52;;
30818;SDS011;17546;42.674;23.284;2022-09-09T15:51:52;29.92;;;9.02;;
30818;SDS011;17546;42.674;23.284;2022-09-09T15:54:21;23.75;;;8.10;;
30818;SDS011;17546;42.674;23.284;2022-09-09T15:59:30;27.55;;;9.10;;
30818;SDS011;17546;42.674;23.284;2022-09-09T16:01:57;29.60;;;8.02;;
30818;SDS011;17546;42.674;23.284;2022-09-09T16:04:25;27.80;;;8.20;;
30818;SDS011;17546;42.674;23.284;2022-09-09T16:06:52;24.70;;;7.72;;
30818;SDS011;17546;42.674;23.284;2022-09-09T16:09:23;36.53;;;8.98;;
30818;SDS011;17546;42.674;23.284;2022-09-09T16:11:50;34.17;;;8.55;;
30818;SDS011;17546;42.674;23.284;2022-09-09T16:14:16;31.25;;;9.18;;
30818;SDS011;17546;42.674;23.284;2022-09-09T16:16:42;20.77;;;8.65;;
30818;SDS011;17546;42.674;23.284;2022-09-09T16:19:09;26.60;;;8.85;;
30818;SDS011;17546;42.674;23.284;2022-09-09T16:21:41;30.33;;;8.98;;
30818;SDS011;17546;42.674;23.284;2022-09-09T16:24:11;27.13;;;9.25;;
30818;SDS011;17546;42.674;23.284;2022-09-09T16:26:40;32.38;;;9.20;;
30818;SDS011;17546;42.674;23.284;2022-09-09T16:29:10;33.65;;;9.98;;
30818;SDS011;17546;42.674;23.284;2022-09-09T16:31:36;25.33;;;9.55;;
30818;SDS011;17546;42.674;23.284;2022-09-09T16:34:03;31.23;;;9.63;;
30818;SDS011;17546;42.674;23.284;2022-09-09T16:36:29;36.78;;;10.77;;
30818;SDS011;17546;42.674;23.284;2022-09-09T16:38:59;21.77;;;9.63;;
30818;SDS011;17546;42.674;23.284;2022-09-09T16:41:27;28.05;;;9.90;;
30818;SDS011;17546;42.674;23.284;2022-09-09T16:43:54;28.73;;;9.40;;
30818;SDS011;17546;42.674;23.284;2022-09-09T16:46:24;30.02;;;10.57;;
30818;SDS011;17546;42.674;23.284;2022-09-09T16:48:52;32.83;;;10.90;;
30818;SDS011;17546;42.674;23.284;2022-09-09T16:51:20;32.30;;;10.07;;
30818;SDS011;17546;42.674;23.284;2022-09-09T16:53:49;26.67;;;10.18;;
30818;SDS011;17546;42.674;23.284;2022-09-09T16:56:18;30.65;;;10.52;;
30818;SDS011;17546;42.674;23.284;2022-09-09T16:58:49;21.75;;;9.63;;
30818;SDS011;17546;42.674;23.284;2022-09-09T17:01:16;25.48;;;9.88;;
30818;SDS011;17546;42.674;23.284;2022-09-09T17:03:41;28.73;;;10.45;;
30818;SDS011;17546;42.674;23.284;2022-09-09T17:06:10;21.92;;;9.40;;
30818;SDS011;17546;42.674;23.284;2022-09-09T17:08:40;29.10;;;10.00;;
30818;SDS011;17546;42.674;23.284;2022-09-09T17:11:17;31.00;;;10.07;;